createdAt,value
2023-04-17T08:12:37.267Z,14.10
2023-04-17T08:15:06.947Z,14.10
2023-04-17T08:17:36.749Z,14.00
2023-04-17T08:20:16.352Z,14.00
2023-04-17T08:22:46.915Z,13.90
2023-04-17T08:25:16.871Z,13.80
2023-04-17T08:27:47.206Z,13.80
2023-04-17T08:30:19.332Z,13.80
2023-04-17T08:32:50.023Z,13.70
2023-04-17T08:35:19.899Z,13.70
2023-04-17T08:37:49.694Z,13.60
2023-04-17T08:40:20.314Z,13.50
2023-04-17T08:42:53.337Z,13.50
2023-04-17T08:45:25.602Z,13.40
2023-04-17T08:47:55.070Z,13.30
2023-04-17T08:50:24.811Z,13.30
2023-04-17T08:52:54.332Z,13.20
2023-04-17T08:55:26.426Z,13.30
2023-04-17T08:58:02.999Z,13.10
2023-04-17T09:00:32.797Z,13.10
2023-04-17T09:03:03.084Z,13.00
2023-04-17T09:05:36.777Z,13.00
2023-04-17T09:08:19.481Z,12.90
2023-04-17T09:10:50.222Z,12.90
2023-04-17T09:13:20.857Z,12.80
2023-04-17T09:16:06.703Z,12.80
2023-04-17T09:18:38.269Z,12.80
2023-04-17T09:21:08.539Z,12.70
2023-04-17T09:23:54.756Z,12.70
2023-04-17T09:26:31.101Z,12.60
2023-04-17T09:32:17.425Z,12.50
2023-04-17T09:34:46.830Z,12.50
2023-04-17T09:37:16.198Z,12.50
2023-04-17T09:40:02.539Z,12.30
2023-04-17T09:42:32.775Z,12.40
2023-04-17T09:45:20.525Z,12.40
2023-04-17T09:47:51.147Z,12.30
2023-04-17T09:50:23.687Z,12.30
2023-04-17T09:52:54.657Z,12.30
2023-04-17T09:55:25.292Z,12.20
2023-04-17T09:58:02.020Z,12.10
2023-04-17T10:00:32.410Z,12.10
2023-04-17T10:03:02.119Z,12.00
2023-04-17T10:05:33.858Z,11.80
2023-04-17T10:08:04.208Z,11.80
2023-04-17T10:10:38.387Z,11.80
2023-04-17T10:13:09.744Z,11.80
2023-04-17T10:15:39.662Z,11.80
2023-04-17T10:18:27.967Z,11.70
2023-04-17T10:20:57.823Z,11.70
2023-04-17T10:23:34.813Z,11.60
2023-04-17T10:26:22.477Z,11.60
2023-04-17T10:28:53.038Z,11.50
2023-04-17T10:31:27.114Z,11.50
2023-04-17T10:34:44.011Z,11.50
2023-04-17T10:37:17.272Z,11.40
2023-04-17T10:40:03.165Z,11.40
2023-04-17T10:42:32.640Z,11.30
2023-04-17T10:45:06.341Z,11.20
2023-04-17T10:47:36.560Z,11.20
2023-04-17T10:50:07.120Z,11.20
2023-04-17T10:52:36.834Z,11.10
2023-04-17T10:55:22.624Z,11.20
2023-04-17T10:57:55.157Z,11.10
2023-04-17T11:00:49.838Z,11.00
2023-04-17T11:06:29.784Z,10.90
2023-04-17T11:08:59.547Z,10.90
2023-04-17T11:11:43.668Z,10.80
2023-04-17T11:14:19.729Z,10.80
2023-04-17T11:16:50.891Z,10.80
2023-04-17T11:19:27.251Z,10.80
2023-04-17T11:22:00.041Z,10.80
2023-04-17T11:24:30.955Z,10.80
2023-04-17T11:27:02.729Z,10.80
2023-04-17T11:29:32.678Z,10.80
2023-04-17T11:32:02.961Z,10.70
2023-04-17T11:34:32.352Z,10.70
2023-04-17T11:37:03.228Z,10.70
2023-04-17T11:39:34.226Z,10.60
2023-04-17T11:42:07.198Z,10.60
2023-04-17T11:44:37.051Z,10.60
2023-04-17T11:47:07.903Z,10.50
2023-04-17T11:49:40.664Z,10.50
2023-04-17T11:52:13.070Z,10.40
2023-04-17T11:54:43.102Z,10.40
2023-04-17T11:57:17.411Z,10.40
2023-04-17T11:59:50.651Z,10.30
2023-04-17T12:02:20.180Z,10.30
2023-04-17T12:04:49.898Z,10.30
2023-04-17T12:07:26.487Z,10.30
2023-04-17T12:09:59.526Z,10.30
2023-04-17T12:12:28.973Z,10.30
2023-04-17T12:14:58.395Z,10.30
2023-04-17T12:17:28.692Z,10.30
2023-04-17T12:19:58.039Z,10.30
2023-04-17T12:22:27.875Z,10.30
2023-04-17T12:24:57.556Z,10.20
2023-04-17T12:27:27.606Z,10.30
2023-04-17T12:29:57.551Z,10.30
2023-04-17T12:35:24.382Z,10.50
2023-04-17T12:37:53.792Z,10.70
2023-04-17T12:40:24.855Z,10.70
2023-04-17T12:42:56.346Z,10.80
2023-04-17T12:45:26.311Z,10.80
2023-04-17T12:47:56.233Z,10.80
2023-04-17T12:50:25.645Z,10.90
2023-04-17T12:52:55.011Z,10.80
2023-04-17T12:55:24.412Z,10.70
2023-04-17T12:57:54.390Z,10.60
2023-04-17T13:00:24.301Z,10.50
2023-04-17T13:02:53.826Z,10.50
2023-04-17T13:05:23.290Z,10.40
2023-04-17T13:07:52.700Z,10.30
2023-04-17T13:10:22.641Z,10.30
2023-04-17T13:12:52.550Z,10.20
2023-04-17T13:15:22.030Z,10.10
2023-04-17T13:17:51.434Z,10.10
2023-04-17T13:20:20.971Z,10.00
2023-04-17T13:22:50.705Z,10.00
2023-04-17T13:25:20.489Z,9.90
2023-04-17T13:27:50.741Z,9.80
2023-04-17T13:30:20.681Z,9.80
2023-04-17T13:32:50.201Z,9.80
2023-04-17T13:35:20.116Z,9.80
2023-04-17T13:37:49.858Z,9.80
2023-04-17T13:40:19.241Z,9.80
2023-04-17T13:42:49.685Z,9.80
2023-04-17T13:45:19.554Z,9.80
2023-04-17T13:47:49.102Z,9.80
2023-04-17T13:50:19.103Z,9.70
2023-04-17T13:52:49.037Z,9.70
2023-04-17T13:55:19.353Z,9.60
2023-04-17T13:57:48.934Z,9.60
2023-04-17T14:00:19.932Z,9.50
2023-04-17T14:02:49.925Z,9.50
2023-04-17T14:05:19.812Z,9.50
2023-04-17T14:07:49.579Z,9.50
2023-04-17T14:10:20.038Z,9.40
2023-04-17T14:12:49.455Z,9.40
2023-04-17T14:15:18.857Z,9.30
2023-04-17T14:17:48.770Z,9.30
2023-04-17T14:20:19.512Z,9.20
2023-04-17T14:22:49.397Z,9.20
2023-04-17T14:25:19.214Z,9.20
2023-04-17T14:27:49.112Z,9.20
2023-04-17T14:30:18.895Z,9.10
2023-04-17T14:32:51.517Z,9.10
2023-04-17T14:35:22.169Z,9.10
2023-04-17T14:37:52.222Z,9.00
2023-04-17T14:40:22.031Z,9.00
2023-04-17T14:42:54.623Z,9.00
2023-04-17T14:45:24.830Z,9.00
2023-04-17T14:47:55.123Z,9.00
2023-04-17T14:50:24.931Z,9.00
2023-04-17T14:52:54.765Z,9.00
2023-04-17T14:55:27.914Z,8.90
2023-04-17T14:57:57.282Z,8.90
2023-04-17T15:00:27.056Z,8.90
2023-04-17T15:02:56.586Z,8.80
2023-04-17T15:05:26.262Z,8.80
2023-04-17T15:07:56.347Z,8.80
2023-04-17T15:10:27.510Z,8.80
2023-04-17T15:13:01.834Z,8.90
2023-04-17T15:15:31.626Z,8.80
2023-04-17T15:18:01.559Z,8.80
2023-04-17T15:20:31.573Z,8.80
2023-04-17T15:23:00.901Z,8.80
2023-04-17T15:25:30.805Z,8.80
2023-04-17T15:28:00.201Z,8.80
2023-04-17T15:30:29.554Z,8.80
2023-04-17T15:32:58.965Z,8.80
2023-04-17T15:35:28.377Z,8.80
2023-04-17T17:00:59.412Z,8.90
2023-04-17T17:03:30.060Z,9.00
2023-04-17T17:05:59.975Z,9.00
2023-04-17T17:08:29.431Z,9.00
2023-04-17T17:10:58.828Z,9.00
2023-04-17T17:13:29.008Z,9.00
2023-04-17T17:15:58.802Z,9.10
2023-04-17T17:18:28.542Z,9.10
2023-04-17T17:21:00.567Z,9.10
2023-04-17T17:23:29.908Z,9.10
2023-04-17T17:25:59.262Z,9.10
2023-04-17T17:28:29.084Z,9.20
2023-04-17T17:31:03.067Z,9.20
2023-04-17T17:33:34.165Z,9.20
2023-04-17T17:36:04.111Z,9.30
2023-04-17T17:38:34.517Z,9.20
2023-04-17T17:41:04.307Z,9.30
2023-04-17T17:43:33.642Z,9.30
2023-04-17T17:46:03.523Z,9.30
2023-04-17T17:48:32.920Z,9.30
2023-04-17T17:51:02.770Z,9.30
2023-04-17T17:53:32.765Z,9.40
2023-04-17T17:56:02.611Z,9.40
2023-04-17T17:58:32.081Z,9.40
2023-04-17T18:01:02.052Z,9.40
2023-04-17T18:03:32.156Z,9.50
2023-04-17T18:06:01.660Z,9.50
2023-04-17T18:08:31.387Z,9.50
2023-04-17T18:11:01.109Z,9.50
2023-04-17T18:13:30.906Z,9.60
2023-04-17T18:16:00.306Z,9.60
2023-04-17T18:18:29.668Z,9.60
2023-04-17T18:20:59.157Z,9.60
2023-04-17T18:23:28.934Z,9.60
2023-04-17T18:25:59.908Z,9.60
2023-04-17T18:28:29.693Z,9.60
2023-04-17T18:30:59.478Z,9.60
2023-04-17T18:33:30.332Z,9.60
2023-04-17T18:36:00.290Z,9.50
2023-04-17T18:38:32.448Z,9.60
2023-04-17T18:41:03.127Z,9.60
2023-04-17T18:43:32.864Z,9.60
2023-04-17T18:46:05.597Z,9.60
2023-04-17T18:48:36.041Z,9.60
2023-04-17T18:51:12.534Z,9.70
2023-04-17T18:53:41.905Z,9.70
2023-04-17T18:56:13.744Z,9.70
2023-04-17T18:58:43.151Z,9.70
2023-04-17T19:01:13.774Z,9.70
2023-04-17T19:03:43.424Z,9.70
2023-04-17T19:06:13.199Z,9.70
2023-04-17T19:08:42.930Z,9.80
2023-04-17T19:11:12.450Z,9.80
2023-04-17T19:13:43.908Z,9.80
2023-04-17T19:16:14.058Z,9.80
2023-04-17T19:18:43.853Z,9.80
2023-04-17T19:21:13.309Z,9.80
2023-04-17T19:23:43.233Z,9.80
2023-04-17T19:26:13.096Z,9.80
2023-04-17T19:28:42.869Z,9.90
2023-04-17T19:31:12.798Z,9.80
2023-04-17T19:33:42.750Z,9.90
2023-04-17T19:36:12.686Z,9.90
2023-04-17T19:38:42.564Z,9.90
2023-04-17T19:41:19.469Z,9.90
2023-04-17T19:43:51.659Z,10.00
2023-04-17T19:46:21.923Z,10.00
2023-04-17T19:48:52.426Z,10.00
2023-04-17T19:51:22.252Z,10.00
2023-04-17T19:53:52.125Z,10.00
2023-04-17T19:56:21.911Z,10.00
2023-04-17T19:58:51.678Z,10.00
2023-04-17T20:01:21.605Z,10.00
2023-04-17T20:03:51.109Z,10.00
2023-04-17T20:06:29.908Z,10.00
2023-04-17T20:09:00.057Z,10.00
2023-04-17T20:11:29.446Z,10.10
2023-04-17T20:13:58.810Z,10.10
2023-04-17T20:16:28.243Z,10.00
2023-04-17T20:18:58.557Z,10.00
2023-04-17T20:21:28.266Z,10.00
2023-04-17T20:24:20.023Z,10.00
2023-04-17T20:26:48.803Z,10.10
2023-04-17T20:29:18.212Z,10.10
2023-04-17T20:31:47.648Z,10.00
2023-04-17T20:34:17.476Z,10.00
2023-04-17T20:36:47.164Z,10.00
2023-04-17T20:39:16.848Z,10.00
2023-04-17T21:08:30.061Z,10.00
2023-04-17T21:11:00.236Z,9.90
2023-04-17T21:13:30.173Z,9.90
2023-04-17T21:15:59.531Z,10.00
2023-04-17T21:18:28.893Z,10.00
2023-04-17T21:20:58.665Z,10.00
2023-04-17T21:23:28.389Z,10.00
2023-04-17T21:25:58.221Z,10.10
2023-04-17T21:28:27.607Z,10.00
2023-04-17T21:30:56.981Z,10.10
2023-04-17T21:33:26.316Z,10.10
2023-04-17T21:35:56.461Z,10.10
2023-04-17T21:38:26.225Z,10.10
2023-04-17T21:40:55.555Z,10.20
2023-04-17T21:44:14.072Z,10.20
2023-04-17T21:46:34.138Z,10.20
2023-04-17T21:49:03.499Z,10.20
2023-04-17T21:51:43.291Z,10.20
2023-04-17T21:54:30.261Z,10.30
2023-04-17T21:56:59.579Z,10.30
2023-04-17T22:02:04.565Z,10.50
2023-04-17T22:04:34.048Z,10.50
2023-04-17T22:07:03.441Z,10.60
2023-04-17T22:12:14.380Z,10.70
2023-04-17T22:14:43.753Z,10.80
2023-04-17T22:17:13.308Z,10.80
2023-04-17T22:19:45.022Z,10.80
2023-04-17T22:22:14.381Z,11.00
2023-04-17T22:24:44.012Z,11.00
2023-04-17T22:27:13.974Z,11.10
2023-04-17T22:29:43.308Z,11.20
2023-04-17T22:32:13.131Z,11.30
2023-04-17T22:34:42.693Z,11.40
2023-04-17T22:37:12.034Z,11.50
2023-04-17T22:39:41.777Z,11.60
2023-04-17T22:42:11.247Z,11.70
